This is the latest recevied weather packets stored in our database for station/object N8WJW. If no packets are shown the sender has not sent any weather packets the latest 1 day(s).
| Time | Temp. | Humidity | Pressure | Rain* | Wind** | Luminosity | Snow |
|---|---|---|---|---|---|---|---|
| 1778025663 | 8.89° C | 99% | 1009.3 hPa | 0 mm | 0.89 m/s, 123° | 4 W/m² | - |
| 1778025361 | 8.89° C | 99% | 1009.4 hPa | 0 mm | 0.45 m/s, 143° | 5 W/m² | - |
| 1778025058 | 8.89° C | 99% | 1009.8 hPa | 0 mm | 0 m/s | 7 W/m² | - |
| 1778024755 | 8.89° C | 99% | 1009.8 hPa | 0 mm | 0 m/s | 9 W/m² | - |
| 1778024451 | 8.89° C | 99% | 1009.4 hPa | 0 mm | 0 m/s | 7 W/m² | - |
| 1778024149 | 8.89° C | 99% | 1009.5 hPa | 0 mm | 0.45 m/s, 112° | 7 W/m² | - |
| 1778023846 | 8.89° C | 99% | 1009.4 hPa | 0.51 mm | 0.45 m/s, 96° | 6 W/m² | - |
| 1778023544 | 8.89° C | 99% | 1009.7 hPa | 0.51 mm | 0.89 m/s, 348° | 5 W/m² | - |
| 1778023241 | 8.89° C | 99% | 1010.4 hPa | 0 mm | 0.89 m/s, 235° | 3 W/m² | - |
| 1778022938 | 8.89° C | 99% | 1009.6 hPa | 0 mm | 0.45 m/s, 112° | 6 W/m² | - |
| 1778022637 | 8.89° C | 99% | 1009.6 hPa | 0 mm | 0.45 m/s, 72° | 8 W/m² | - |
| 1778022334 | 8.89° C | 99% | 1009.6 hPa | 0 mm | 0.89 m/s, 135° | 6 W/m² | - |
| 1778022030 | 8.89° C | 99% | 1009.4 hPa | 0 mm | 0 m/s | 11 W/m² | - |
| 1778021727 | 9.44° C | 99% | 1009.6 hPa | 0 mm | 0 m/s | 9 W/m² | - |
| 1778021423 | 9.44° C | 99% | 1009.5 hPa | 0 mm | 0 m/s | 10 W/m² | - |
| 1778021120 | 9.44° C | 99% | 1009.4 hPa | 0 mm | 1.34 m/s, 121° | 13 W/m² | - |
| 1778020817 | 9.44° C | 99% | 1009.8 hPa | 0 mm | 0 m/s | 6 W/m² | - |
| 1778020514 | 9.44° C | 99% | 1009.4 hPa | 0 mm | 0 m/s | 20 W/m² | - |
| 1778020216 | 9.44° C | 99% | 1009.5 hPa | 0 mm | 0 m/s | 8 W/m² | - |
| 1778019907 | 9.44° C | 99% | 1009.6 hPa | 0 mm | 0 m/s | 8 W/m² | - |
| 1778019603 | 9.44° C | 99% | 1009.7 hPa | 0 mm | 0 m/s | 5 W/m² | - |
| 1778019300 | 10° C | 99% | 1009.5 hPa | 0 mm | 0.89 m/s, 147° | 19 W/m² | - |
| 1778018997 | 10° C | 99% | 1009.6 hPa | 0 mm | 0 m/s | 17 W/m² | - |
| 1778018694 | 10° C | 99% | 1009.8 hPa | 0 mm | 1.34 m/s, 248° | 8 W/m² | - |
| 1778018391 | 10° C | 99% | 1009.4 hPa | 0 mm | 0.89 m/s, 91° | 14 W/m² | - |
* Rain latest hour (hover to see other rain measurements)
** Current wind speed in m/s (hover to see current wind gust speed)